Happy Valentine's Day! 

Flight Track Log - Related Links

Times and Time Zones

All times are in EDT time to prevent confusion due to time zone crossing. See the ASQ5259 flight status page for this flight to view local times or setup timezone preferences in your user account.


Time Position Orientation Groundspeed Altitude Reporting Facility
EDT Latitude Longitude Course Direction KTS MPH feet Rate Location/Type
Tue 09:05:29 PM 33.6500 -84.4667 296° West 186 214 2,800  Level Atlanta TRACON
Tue 09:06:29 PM 33.6833 -84.5500 296° West 265 305 4,600 2,269 Climbing Atlanta TRACON
Tue 09:07:28 PM 33.7500 -84.5833 337° Northwest 322 371 7,300 2,723 Climbing Atlanta TRACON
Tue 09:08:28 PM 33.8333 -84.5500 18° North 310 357 10,000 1,934 Climbing Atlanta TRACON
Tue 09:09:29 PM 33.8978 -84.4567 50° Northeast 364 419 11,200 1,636 Climbing Atlanta Center
Tue 09:10:29 PM 33.9858 -84.3819 35° Northeast 398 458 13,300 1,950 Climbing Atlanta Center
Tue 09:11:29 PM 34.0861 -84.3472 16° North 381 438 15,100 1,950 Climbing Atlanta Center
Tue 09:12:29 PM 34.2008 -84.3100 15° North 403 464 17,200 1,850 Climbing Atlanta Center
Tue 09:13:29 PM 34.3136 -84.2753 14° North 408 470 18,800 1,650 Climbing Atlanta Center
Tue 09:14:29 PM 34.4286 -84.2453 12° North 414 476 20,500 1,600 Climbing Atlanta Center
Tue 09:15:29 PM 34.5433 -84.2203 10° North 414 476 22,000 1,250 Climbing Atlanta Center
Tue 09:16:29 PM 34.6478 -84.1928 12° North 419 482 23,000 800 Climbing Atlanta Center
Tue 09:17:29 PM 34.7689 -84.1703 North 425 489 23,600 1,050 Climbing Atlanta Center
Tue 09:18:29 PM 34.8942 -84.1400 11° North 438 504 25,100 1,500 Climbing Atlanta Center
Tue 09:19:29 PM 35.0172 -84.1122 10° North 449 517 26,600 1,250 Climbing Atlanta Center
Tue 09:20:29 PM 35.1444 -84.0794 12° North 449 517 27,600 950 Climbing Atlanta Center
Tue 09:21:29 PM 35.2739 -84.0489 11° North 460 529 28,500 750 Climbing Atlanta Center
Tue 09:22:29 PM 35.4094 -84.0158 11° North 472 543 29,100 700 Climbing Atlanta Center
Tue 09:23:29 PM 35.5472 -83.9825 11° North 488 562 29,900 850 Climbing Atlanta Center
Tue 09:24:29 PM 35.6847 -83.9492 11° North 501 577 30,800 950 Climbing Atlanta Center
Tue 09:25:29 PM 35.8247 -83.9158 11° North 506 582 31,800 950 Climbing Atlanta Center
Tue 09:26:29 PM 35.9622 -83.8617 18° North 506 582 32,700 850 Climbing Atlanta Center
Tue 09:27:29 PM 36.0933 -83.7792 27° Northeast 511 588 33,500 750 Climbing Atlanta Center
Tue 09:28:37 PM 36.2453 -83.6792 28° Northeast 528 608 34,300 698 Climbing Indianapolis Center
Tue 09:29:38 PM 36.3778 -83.5950 27° Northeast 531 611 35,000 341 Climbing Indianapolis Center
Tue 09:30:40 PM 36.5153 -83.5075 27° Northeast 542 624 35,000  Level Indianapolis Center
Tue 09:31:41 PM 36.6531 -83.4125 29° Northeast 561 646 35,000  Level Indianapolis Center
Tue 09:32:43 PM 36.8011 -83.2739 37° Northeast 567 652 35,000  Level Indianapolis Center
Tue 09:33:44 PM 36.9253 -83.1569 37° Northeast 560 644 35,000  Level Indianapolis Center
Tue 09:34:45 PM 37.0508 -83.0392 37° Northeast 553 636 35,000  Level Indianapolis Center
Tue 09:35:47 PM 37.1769 -82.9167 38° Northeast 557 641 35,000  Level Indianapolis Center
Tue 09:36:48 PM 37.3036 -82.7944 37° Northeast 567 652 35,000 344 Level Indianapolis Center
Tue 09:37:49 PM 37.4294 -82.6747 37° Northeast 566 651 35,700 634 Climbing Indianapolis Center
Tue 09:38:51 PM 37.5517 -82.5561 38° Northeast 557 641 36,300 488 Climbing Indianapolis Center
Tue 09:39:52 PM 37.6742 -82.4375 37° Northeast 557 641 36,700 341 Climbing Indianapolis Center
Tue 09:40:54 PM 37.7942 -82.3136 39° Northeast 557 641 37,000 146 Climbing Indianapolis Center
Tue 09:41:55 PM 37.9022 -82.1692 47° Northeast 558 642 37,000  Level Indianapolis Center
Tue 09:42:56 PM 38.0297 -82.0044 45° Northeast 565 650 37,000  Level Indianapolis Center
Tue 09:43:58 PM 38.1383 -81.8619 46° Northeast 565 650 37,000  Level Indianapolis Center
Tue 09:45:02 PM 38.2464 -81.7203 46° Northeast 564 649 37,000  Level Indianapolis Center
Tue 09:46:00 PM 38.3536 -81.5775 46° Northeast 564 649 37,000  Level Indianapolis Center
Tue 09:47:02 PM 38.4600 -81.4353 46° Northeast 564 649 37,000  Level Indianapolis Center
Tue 09:48:03 PM 38.5656 -81.2933 46° Northeast 563 648 37,000  Level Indianapolis Center
Tue 09:49:04 PM 38.6722 -81.1514 46° Northeast 563 648 37,000  Level Indianapolis Center
Tue 09:50:06 PM 38.8022 -80.9797 46° Northeast 563 648 37,000  Level Indianapolis Center
Tue 09:51:09 PM 38.9097 -80.8347 46° Northeast 563 648 37,000  Level Indianapolis Center
Tue 09:52:08 PM 39.0186 -80.6875 46° Northeast 566 651 37,000  Level Indianapolis Center
Tue 09:53:10 PM 39.1272 -80.5394 47° Northeast 569 655 37,000  Level Indianapolis Center
Tue 09:54:11 PM 39.2369 -80.3911 46° Northeast 570 656 37,000  Level Indianapolis Center
Tue 09:55:12 PM 39.3453 -80.2403 47° Northeast 570 656 37,000  Level Indianapolis Center
Tue 09:56:14 PM 39.4528 -80.0894 47° Northeast 570 656 37,000  Level Indianapolis Center
Tue 09:57:15 PM 39.5625 -79.9403 46° Northeast 570 656 37,000  Level Indianapolis Center
Tue 09:58:16 PM 39.6908 -79.7600 47° Northeast 570 656 37,000  Level Indianapolis Center
Tue 09:59:17 PM 39.7978 -79.6097 47° Northeast 570 656 37,000  Level Indianapolis Center
Tue 10:00:19 PM 39.9047 -79.4597 47° Northeast 570 656 37,000  Level Indianapolis Center
Tue 10:01:39 PM 40.0400 -79.2667 47° Northeast 564 649 37,000  Level Cleveland Center
Tue 10:02:40 PM 40.1378 -79.1253 48° Northeast 563 648 37,000  Level Cleveland Center
Tue 10:03:42 PM 40.2411 -78.9767 48° Northeast 561 646 37,000  Level Cleveland Center
Tue 10:04:43 PM 40.3661 -78.7997 47° Northeast 554 638 37,000  Level Cleveland Center
Tue 10:05:44 PM 40.4694 -78.6517 47° Northeast 554 638 37,000  Level Cleveland Center
Tue 10:06:46 PM 40.5722 -78.5000 48° Northeast 560 644 37,000  Level Cleveland Center
Tue 10:07:47 PM 40.6736 -78.3514 48° Northeast 559 643 37,000  Level Cleveland Center
Tue 10:08:49 PM 40.7758 -78.2003 48° Northeast 559 643 37,000  Level Cleveland Center
Tue 10:09:50 PM 40.8992 -78.0178 48° Northeast 562 647 37,000  Level Cleveland Center
Tue 10:10:52 PM 40.9967 -77.8594 51° Northeast 563 648 37,000  Level Cleveland Center
Tue 10:11:53 PM 41.1106 -77.7200 43° Northeast 566 651 37,000  Level Cleveland Center
Tue 10:12:55 PM 41.2236 -77.5800 43° Northeast 564 649 37,000  Level Cleveland Center
Tue 10:13:56 PM 41.3356 -77.4372 44° Northeast 563 648 37,000  Level Cleveland Center
Tue 10:14:58 PM 41.4469 -77.2967 43° Northeast 556 640 37,000  Level Cleveland Center
Tue 10:15:59 PM 41.5811 -77.1247 44° Northeast 559 643 37,000  Level Cleveland Center
Tue 10:17:01 PM 41.6833 -76.9942 44° Northeast 559 643 37,000  Level Cleveland Center
Tue 10:18:02 PM 41.7950 -76.8483 44° Northeast 560 644 37,000  Level Cleveland Center
Tue 10:19:03 PM 41.9067 -76.7053 44° Northeast 560 644 37,000  Level Cleveland Center
Tue 10:21:21 PM 42.1678 -76.3650 44° Northeast 559 643 37,000  Level Boston Center
Tue 10:22:22 PM 42.2975 -76.1939 44° Northeast 559 643 37,000  Level Boston Center
Tue 10:23:23 PM 42.4083 -76.0444 45° Northeast 560 644 37,000  Level Boston Center
Tue 10:24:23 PM 42.5203 -75.8964 44° Northeast 562 647 37,000  Level Boston Center
Tue 10:25:24 PM 42.6308 -75.7472 45° Northeast 562 647 37,000  Level Boston Center
Tue 10:26:25 PM 42.7397 -75.6019 44° Northeast 556 640 37,000  Level Boston Center
Tue 10:27:26 PM 42.8481 -75.4525 45° Northeast 556 640 37,000  Level Boston Center
Tue 10:28:27 PM 42.9581 -75.3042 45° Northeast 557 641 37,000 -50 Level Boston Center
Tue 10:29:27 PM 43.0658 -75.1561 45° Northeast 557 641 36,900 -298 Descending Boston Center
Tue 10:30:28 PM 43.1725 -75.0089 45° Northeast 557 641 36,400 -1,230 Descending Boston Center
Tue 10:31:29 PM 43.2772 -74.8628 45° Northeast 551 634 34,400 -2,656 Descending Boston Center
Tue 10:32:30 PM 43.4006 -74.6911 45° Northeast 537 618 31,000 -3,124 Descending Boston Center
Tue 10:33:30 PM 43.5039 -74.5464 45° Northeast 537 618 28,100 -2,826 Descending Boston Center
Tue 10:34:31 PM 43.6039 -74.4069 45° Northeast 520 598 25,300 -2,656 Descending Boston Center
Tue 10:35:32 PM 43.7000 -74.2708 46° Northeast 505 581 22,700 -2,508 Descending Boston Center
Tue 10:36:33 PM 43.7942 -74.1394 45° Northeast 487 560 20,200 -2,281 Descending Boston Center
Tue 10:37:33 PM 43.8814 -74.0144 46° Northeast 459 528 18,100 -2,430 Descending Boston Center
Tue 10:38:34 PM 43.9739 -73.8792 46° Northeast 431 496 15,300 -2,705 Descending Boston Center
Tue 10:39:35 PM 44.0531 -73.7644 46° Northeast 419 482 12,600 -2,281 Descending Boston Center
Tue 10:40:35 PM 44.1278 -73.6564 46° Northeast 394 453 10,700 -1,339 Descending Boston Center
Tue 10:41:36 PM 44.1900 -73.5669 46° Northeast 325 374 9,900 -1,279 Descending Boston Center
Tue 10:42:37 PM 44.2550 -73.4886 41° Northeast 291 335 8,100 -1,869 Descending Boston Center
Tue 10:43:38 PM 44.3233 -73.4289 32° Northeast 292 336 6,100 -1,339 Descending Boston Center
Tue 10:44:38 PM 44.3906 -73.3756 30° Northeast 284 327 5,400 -992 Descending Boston Center
Tue 10:45:39 PM 44.4486 -73.3333 27° Northeast 242 278 4,100 -1,230 Descending Boston Center
Tue 10:46:40 PM 44.5022 -73.2983 25° Northeast 211 243 2,900 -1,140 Descending Boston Center
Tue 10:47:40 PM 44.5253 -73.2406 61° Northeast 157 181 1,800 -893 Descending Boston Center
Tue 10:48:41 PM 44.5028 -73.2017 129° Southeast 132 152 1,100 -689 Descending Boston Center
Tue 10:49:42 PM 44.4786 -73.1625 131° Southeast 133 153 400 -689 Descending Boston Center
Tue 10:51:00 PM 44.4667 -73.1500 44° Northeast  Level FlightAware Approximate
Tue 10:58:00 PM 44.4719 -73.1533 44° Northeast  Level Estimated

Login

Don't have an account? Register now (free) for customized features, flight alerts, and more!